< < Back
Terminal Aerodrome Forecast


Current Version              Previous Versions:   1  2  3  4  5  6  7  8  9  

Terminal Aerodrome Forecast

543
FTUS42 KJAX 261120
TAFJAX
TAF
KJAX 261120Z 2612/2712 25008KT P6SM SCT010
     FM261300 25011G18KT P6SM SCT020
     FM261700 26013G23KT P6SM VCTS SCT040CB SCT250
     FM262200 23008KT P6SM VCSH SCT030 BKN150 BKN250
     FM270300 28005KT P6SM SCT250=



Latest METAR

924
SAUS80 KWBC 261700 CCA
MTRJAX
METAR KJAX 261656Z 26012KT 10SM FEW040 FEW200 SCT250 30/16 A2972 RMK AO2
SLP064 T03000161


USA.gov is the U.S. government's official web portal to all federal, state and local government web resources and services.